sensor_id;sensor_type;location;lat;lon;timestamp;pressure;altitude;pressure_sealevel;temperature
12854;BMP180;6495;51.808;7.478;2023-03-31T00:00:28;99972.00;;;12.20
12854;BMP180;6495;51.808;7.478;2023-03-31T00:03:17;99953.00;;;12.20
12854;BMP180;6495;51.808;7.478;2023-03-31T00:06:12;99967.00;;;12.20
12854;BMP180;6495;51.808;7.478;2023-03-31T00:09:09;99961.00;;;12.20
12854;BMP180;6495;51.808;7.478;2023-03-31T00:11:58;99962.00;;;12.20
12854;BMP180;6495;51.808;7.478;2023-03-31T00:14:46;99959.00;;;12.10
12854;BMP180;6495;51.808;7.478;2023-03-31T00:17:35;99955.00;;;12.10
12854;BMP180;6495;51.808;7.478;2023-03-31T00:20:24;99947.00;;;12.00
12854;BMP180;6495;51.808;7.478;2023-03-31T00:23:12;99942.00;;;12.00
12854;BMP180;6495;51.808;7.478;2023-03-31T00:26:02;99934.00;;;12.00
12854;BMP180;6495;51.808;7.478;2023-03-31T00:28:52;99926.00;;;12.00
12854;BMP180;6495;51.808;7.478;2023-03-31T00:31:40;99918.00;;;11.90
12854;BMP180;6495;51.808;7.478;2023-03-31T00:34:29;99924.00;;;11.90
12854;BMP180;6495;51.808;7.478;2023-03-31T00:37:19;99921.00;;;11.90
12854;BMP180;6495;51.808;7.478;2023-03-31T00:40:10;99910.00;;;11.80
12854;BMP180;6495;51.808;7.478;2023-03-31T00:43:00;99909.00;;;11.80
12854;BMP180;6495;51.808;7.478;2023-03-31T00:45:49;99902.00;;;11.80
12854;BMP180;6495;51.808;7.478;2023-03-31T00:48:44;99897.00;;;11.80
12854;BMP180;6495;51.808;7.478;2023-03-31T00:51:35;99891.00;;;11.80
12854;BMP180;6495;51.808;7.478;2023-03-31T00:54:26;99882.00;;;11.80
12854;BMP180;6495;51.808;7.478;2023-03-31T00:57:16;99880.00;;;11.70
12854;BMP180;6495;51.808;7.478;2023-03-31T01:00:12;99882.00;;;11.80
12854;BMP180;6495;51.808;7.478;2023-03-31T01:03:06;99870.00;;;11.80
12854;BMP180;6495;51.808;7.478;2023-03-31T01:06:00;99872.00;;;11.70
12854;BMP180;6495;51.808;7.478;2023-03-31T01:08:51;99855.00;;;11.70
12854;BMP180;6495;51.808;7.478;2023-03-31T01:11:42;99852.00;;;11.70
12854;BMP180;6495;51.808;7.478;2023-03-31T01:14:33;99858.00;;;11.70
12854;BMP180;6495;51.808;7.478;2023-03-31T01:17:23;99856.00;;;11.70
12854;BMP180;6495;51.808;7.478;2023-03-31T01:20:27;99850.00;;;11.70
12854;BMP180;6495;51.808;7.478;2023-03-31T01:23:45;99837.00;;;11.70
12854;BMP180;6495;51.808;7.478;2023-03-31T01:27:00;99827.00;;;11.80
12854;BMP180;6495;51.808;7.478;2023-03-31T01:30:28;99831.00;;;11.70
12854;BMP180;6495;51.808;7.478;2023-03-31T01:34:13;99817.00;;;11.70
12854;BMP180;6495;51.808;7.478;2023-03-31T01:41:17;99803.00;;;11.70
12854;BMP180;6495;51.808;7.478;2023-03-31T01:44:20;99806.00;;;11.60
12854;BMP180;6495;51.808;7.478;2023-03-31T01:47:17;99795.00;;;11.60
12854;BMP180;6495;51.808;7.478;2023-03-31T01:50:18;99802.00;;;11.70
12854;BMP180;6495;51.808;7.478;2023-03-31T01:53:19;99795.00;;;11.60
12854;BMP180;6495;51.808;7.478;2023-03-31T01:56:17;99791.00;;;11.60
12854;BMP180;6495;51.808;7.478;2023-03-31T01:59:12;99784.00;;;11.60
12854;BMP180;6495;51.808;7.478;2023-03-31T02:02:06;99789.00;;;11.60
12854;BMP180;6495;51.808;7.478;2023-03-31T02:05:01;99775.00;;;11.60
12854;BMP180;6495;51.808;7.478;2023-03-31T02:07:55;99768.00;;;11.60
12854;BMP180;6495;51.808;7.478;2023-03-31T02:10:48;99769.00;;;11.60
12854;BMP180;6495;51.808;7.478;2023-03-31T02:13:42;99757.00;;;11.60
12854;BMP180;6495;51.808;7.478;2023-03-31T02:16:37;99762.00;;;11.60
12854;BMP180;6495;51.808;7.478;2023-03-31T02:19:32;99744.00;;;11.60
12854;BMP180;6495;51.808;7.478;2023-03-31T02:22:24;99738.00;;;11.60
12854;BMP180;6495;51.808;7.478;2023-03-31T02:25:17;99740.00;;;11.60
12854;BMP180;6495;51.808;7.478;2023-03-31T02:28:11;99732.00;;;11.60
12854;BMP180;6495;51.808;7.478;2023-03-31T02:31:24;99725.00;;;11.60
12854;BMP180;6495;51.808;7.478;2023-03-31T02:34:14;99709.00;;;11.60
12854;BMP180;6495;51.808;7.478;2023-03-31T02:37:03;99710.00;;;11.60
12854;BMP180;6495;51.808;7.478;2023-03-31T02:39:55;99701.00;;;11.60
12854;BMP180;6495;51.808;7.478;2023-03-31T02:42:44;99696.00;;;11.60
12854;BMP180;6495;51.808;7.478;2023-03-31T02:45:40;99693.00;;;11.60
12854;BMP180;6495;51.808;7.478;2023-03-31T02:48:35;99690.00;;;11.60
12854;BMP180;6495;51.808;7.478;2023-03-31T02:52:02;99686.00;;;11.60
12854;BMP180;6495;51.808;7.478;2023-03-31T02:55:40;99678.00;;;11.60
12854;BMP180;6495;51.808;7.478;2023-03-31T02:59:05;99659.00;;;11.50
12854;BMP180;6495;51.808;7.478;2023-03-31T03:02:15;99646.00;;;11.40
12854;BMP180;6495;51.808;7.478;2023-03-31T03:05:21;99646.00;;;11.40
12854;BMP180;6495;51.808;7.478;2023-03-31T03:08:55;99636.00;;;11.30
12854;BMP180;6495;51.808;7.478;2023-03-31T03:11:57;99624.00;;;11.30
12854;BMP180;6495;51.808;7.478;2023-03-31T03:14:54;99611.00;;;11.20
12854;BMP180;6495;51.808;7.478;2023-03-31T03:17:48;99599.00;;;11.20
12854;BMP180;6495;51.808;7.478;2023-03-31T03:20:41;99594.00;;;11.20
12854;BMP180;6495;51.808;7.478;2023-03-31T03:23:34;99588.00;;;11.10
12854;BMP180;6495;51.808;7.478;2023-03-31T03:26:23;99577.00;;;11.10
12854;BMP180;6495;51.808;7.478;2023-03-31T03:29:14;99565.00;;;11.10
12854;BMP180;6495;51.808;7.478;2023-03-31T03:32:02;99561.00;;;11.00
12854;BMP180;6495;51.808;7.478;2023-03-31T03:34:51;99548.00;;;11.00
12854;BMP180;6495;51.808;7.478;2023-03-31T03:37:41;99548.00;;;11.00
12854;BMP180;6495;51.808;7.478;2023-03-31T03:40:29;99553.00;;;10.90
12854;BMP180;6495;51.808;7.478;2023-03-31T03:43:18;99550.00;;;11.00
12854;BMP180;6495;51.808;7.478;2023-03-31T03:46:06;99547.00;;;11.00
12854;BMP180;6495;51.808;7.478;2023-03-31T03:48:55;99542.00;;;11.00
12854;BMP180;6495;51.808;7.478;2023-03-31T03:51:44;99537.00;;;11.00
12854;BMP180;6495;51.808;7.478;2023-03-31T03:54:34;99524.00;;;11.00
12854;BMP180;6495;51.808;7.478;2023-03-31T03:57:23;99514.00;;;11.00
12854;BMP180;6495;51.808;7.478;2023-03-31T04:00:13;99512.00;;;11.00
12854;BMP180;6495;51.808;7.478;2023-03-31T04:03:02;99512.00;;;11.00
12854;BMP180;6495;51.808;7.478;2023-03-31T04:05:51;99499.00;;;11.00
12854;BMP180;6495;51.808;7.478;2023-03-31T04:08:40;99487.00;;;11.00
12854;BMP180;6495;51.808;7.478;2023-03-31T04:11:30;99479.00;;;11.00
12854;BMP180;6495;51.808;7.478;2023-03-31T04:14:19;99475.00;;;11.00
12854;BMP180;6495;51.808;7.478;2023-03-31T04:17:07;99484.00;;;11.00
12854;BMP180;6495;51.808;7.478;2023-03-31T04:19:57;99476.00;;;11.00
12854;BMP180;6495;51.808;7.478;2023-03-31T04:22:47;99474.00;;;11.00
12854;BMP180;6495;51.808;7.478;2023-03-31T04:25:37;99465.00;;;11.00
12854;BMP180;6495;51.808;7.478;2023-03-31T04:28:33;99446.00;;;11.00
12854;BMP180;6495;51.808;7.478;2023-03-31T04:31:22;99441.00;;;10.90
12854;BMP180;6495;51.808;7.478;2023-03-31T04:34:14;99434.00;;;10.90
12854;BMP180;6495;51.808;7.478;2023-03-31T04:37:02;99430.00;;;10.90
12854;BMP180;6495;51.808;7.478;2023-03-31T04:39:51;99429.00;;;10.90
12854;BMP180;6495;51.808;7.478;2023-03-31T04:42:41;99419.00;;;10.90
12854;BMP180;6495;51.808;7.478;2023-03-31T04:45:31;99407.00;;;10.90
12854;BMP180;6495;51.808;7.478;2023-03-31T04:48:19;99399.00;;;10.90
12854;BMP180;6495;51.808;7.478;2023-03-31T04:51:08;99386.00;;;10.80
12854;BMP180;6495;51.808;7.478;2023-03-31T04:53:57;99385.00;;;10.80
12854;BMP180;6495;51.808;7.478;2023-03-31T04:56:45;99397.00;;;10.80
12854;BMP180;6495;51.808;7.478;2023-03-31T04:59:34;99402.00;;;10.80
12854;BMP180;6495;51.808;7.478;2023-03-31T05:02:32;99398.00;;;10.80
12854;BMP180;6495;51.808;7.478;2023-03-31T05:05:21;99386.00;;;10.80
12854;BMP180;6495;51.808;7.478;2023-03-31T05:08:09;99387.00;;;10.80
12854;BMP180;6495;51.808;7.478;2023-03-31T05:10:58;99377.00;;;10.80
12854;BMP180;6495;51.808;7.478;2023-03-31T05:13:46;99373.00;;;10.80
12854;BMP180;6495;51.808;7.478;2023-03-31T05:16:35;99356.00;;;10.80
12854;BMP180;6495;51.808;7.478;2023-03-31T05:19:25;99357.00;;;10.80
12854;BMP180;6495;51.808;7.478;2023-03-31T05:22:13;99344.00;;;10.80
12854;BMP180;6495;51.808;7.478;2023-03-31T05:25:08;99338.00;;;10.70
12854;BMP180;6495;51.808;7.478;2023-03-31T05:27:58;99339.00;;;10.70
12854;BMP180;6495;51.808;7.478;2023-03-31T05:30:47;99322.00;;;10.70
12854;BMP180;6495;51.808;7.478;2023-03-31T05:33:36;99313.00;;;10.70
12854;BMP180;6495;51.808;7.478;2023-03-31T05:36:29;99307.00;;;10.70
12854;BMP180;6495;51.808;7.478;2023-03-31T05:39:18;99306.00;;;10.70
12854;BMP180;6495;51.808;7.478;2023-03-31T05:42:07;99292.00;;;10.70
12854;BMP180;6495;51.808;7.478;2023-03-31T05:44:56;99289.00;;;10.60
12854;BMP180;6495;51.808;7.478;2023-03-31T05:47:44;99276.00;;;10.60
12854;BMP180;6495;51.808;7.478;2023-03-31T05:50:33;99271.00;;;10.60
12854;BMP180;6495;51.808;7.478;2023-03-31T05:53:23;99264.00;;;10.60
12854;BMP180;6495;51.808;7.478;2023-03-31T05:56:12;99254.00;;;10.60
12854;BMP180;6495;51.808;7.478;2023-03-31T05:59:00;99247.00;;;10.60
12854;BMP180;6495;51.808;7.478;2023-03-31T06:01:51;99243.00;;;10.60
12854;BMP180;6495;51.808;7.478;2023-03-31T06:04:40;99237.00;;;10.60
12854;BMP180;6495;51.808;7.478;2023-03-31T06:07:30;99235.00;;;10.60
12854;BMP180;6495;51.808;7.478;2023-03-31T06:10:19;99226.00;;;10.60
12854;BMP180;6495;51.808;7.478;2023-03-31T06:13:08;99228.00;;;10.70
12854;BMP180;6495;51.808;7.478;2023-03-31T06:15:59;99219.00;;;10.70
12854;BMP180;6495;51.808;7.478;2023-03-31T06:18:48;99214.00;;;10.70
12854;BMP180;6495;51.808;7.478;2023-03-31T06:21:37;99216.00;;;10.70
12854;BMP180;6495;51.808;7.478;2023-03-31T06:24:26;99213.00;;;10.70
12854;BMP180;6495;51.808;7.478;2023-03-31T06:27:15;99201.00;;;10.70
12854;BMP180;6495;51.808;7.478;2023-03-31T06:30:05;99193.00;;;10.70
12854;BMP180;6495;51.808;7.478;2023-03-31T06:32:54;99195.00;;;10.70
12854;BMP180;6495;51.808;7.478;2023-03-31T06:35:43;99191.00;;;10.80
12854;BMP180;6495;51.808;7.478;2023-03-31T06:38:32;99195.00;;;10.70
12854;BMP180;6495;51.808;7.478;2023-03-31T06:41:20;99180.00;;;10.70
12854;BMP180;6495;51.808;7.478;2023-03-31T06:44:10;99180.00;;;10.80
12854;BMP180;6495;51.808;7.478;2023-03-31T06:46:59;99170.00;;;10.80
12854;BMP180;6495;51.808;7.478;2023-03-31T06:49:47;99174.00;;;10.80
12854;BMP180;6495;51.808;7.478;2023-03-31T06:52:36;99170.00;;;10.80
12854;BMP180;6495;51.808;7.478;2023-03-31T06:55:25;99164.00;;;10.80
12854;BMP180;6495;51.808;7.478;2023-03-31T06:58:13;99161.00;;;10.90
12854;BMP180;6495;51.808;7.478;2023-03-31T07:01:05;99161.00;;;10.90
12854;BMP180;6495;51.808;7.478;2023-03-31T07:03:54;99173.00;;;10.90
12854;BMP180;6495;51.808;7.478;2023-03-31T07:06:43;99164.00;;;10.90
12854;BMP180;6495;51.808;7.478;2023-03-31T07:09:32;99175.00;;;10.90
12854;BMP180;6495;51.808;7.478;2023-03-31T07:12:20;99158.00;;;10.90
12854;BMP180;6495;51.808;7.478;2023-03-31T07:15:09;99165.00;;;10.90
12854;BMP180;6495;51.808;7.478;2023-03-31T07:17:59;99160.00;;;11.00
12854;BMP180;6495;51.808;7.478;2023-03-31T07:20:49;99152.00;;;10.90
12854;BMP180;6495;51.808;7.478;2023-03-31T07:23:38;99158.00;;;10.90
12854;BMP180;6495;51.808;7.478;2023-03-31T07:26:26;99175.00;;;10.90
12854;BMP180;6495;51.808;7.478;2023-03-31T07:29:15;99165.00;;;10.90
12854;BMP180;6495;51.808;7.478;2023-03-31T07:32:04;99149.00;;;10.90
12854;BMP180;6495;51.808;7.478;2023-03-31T07:34:54;99151.00;;;10.90
12854;BMP180;6495;51.808;7.478;2023-03-31T07:37:44;99151.00;;;10.80
12854;BMP180;6495;51.808;7.478;2023-03-31T07:40:33;99148.00;;;10.90
12854;BMP180;6495;51.808;7.478;2023-03-31T07:43:22;99149.00;;;10.90
12854;BMP180;6495;51.808;7.478;2023-03-31T07:46:17;99152.00;;;10.90
12854;BMP180;6495;51.808;7.478;2023-03-31T07:49:05;99161.00;;;11.00
12854;BMP180;6495;51.808;7.478;2023-03-31T07:51:57;99154.00;;;11.00
12854;BMP180;6495;51.808;7.478;2023-03-31T07:54:46;99154.00;;;11.00
12854;BMP180;6495;51.808;7.478;2023-03-31T07:57:35;99155.00;;;10.90
12854;BMP180;6495;51.808;7.478;2023-03-31T08:00:24;99157.00;;;10.90
12854;BMP180;6495;51.808;7.478;2023-03-31T08:03:13;99154.00;;;10.90
12854;BMP180;6495;51.808;7.478;2023-03-31T08:06:02;99147.00;;;10.90
12854;BMP180;6495;51.808;7.478;2023-03-31T08:08:52;99145.00;;;11.00
12854;BMP180;6495;51.808;7.478;2023-03-31T08:11:41;99140.00;;;11.00
12854;BMP180;6495;51.808;7.478;2023-03-31T08:14:33;99133.00;;;11.00
12854;BMP180;6495;51.808;7.478;2023-03-31T08:17:28;99140.00;;;11.00
12854;BMP180;6495;51.808;7.478;2023-03-31T08:20:17;99141.00;;;11.00
12854;BMP180;6495;51.808;7.478;2023-03-31T08:23:05;99134.00;;;10.90
12854;BMP180;6495;51.808;7.478;2023-03-31T08:26:10;99134.00;;;10.90
12854;BMP180;6495;51.808;7.478;2023-03-31T08:29:04;99126.00;;;10.90
12854;BMP180;6495;51.808;7.478;2023-03-31T08:31:53;99138.00;;;11.00
12854;BMP180;6495;51.808;7.478;2023-03-31T08:34:42;99128.00;;;11.00
12854;BMP180;6495;51.808;7.478;2023-03-31T08:37:32;99119.00;;;11.00
12854;BMP180;6495;51.808;7.478;2023-03-31T08:40:24;99127.00;;;10.90
12854;BMP180;6495;51.808;7.478;2023-03-31T08:43:26;99122.00;;;11.00
12854;BMP180;6495;51.808;7.478;2023-03-31T08:46:18;99120.00;;;11.00
12854;BMP180;6495;51.808;7.478;2023-03-31T08:49:13;99125.00;;;11.00
12854;BMP180;6495;51.808;7.478;2023-03-31T08:52:09;99120.00;;;11.00
12854;BMP180;6495;51.808;7.478;2023-03-31T08:55:02;99123.00;;;11.10
12854;BMP180;6495;51.808;7.478;2023-03-31T08:58:01;99106.00;;;11.10
12854;BMP180;6495;51.808;7.478;2023-03-31T09:01:01;99109.00;;;11.20
12854;BMP180;6495;51.808;7.478;2023-03-31T09:04:16;99107.00;;;11.20
12854;BMP180;6495;51.808;7.478;2023-03-31T09:07:16;99113.00;;;11.20
12854;BMP180;6495;51.808;7.478;2023-03-31T09:10:29;99120.00;;;11.20
12854;BMP180;6495;51.808;7.478;2023-03-31T09:13:46;99121.00;;;11.20
12854;BMP180;6495;51.808;7.478;2023-03-31T09:16:47;99114.00;;;11.30
12854;BMP180;6495;51.808;7.478;2023-03-31T09:19:43;99106.00;;;11.20
12854;BMP180;6495;51.808;7.478;2023-03-31T09:22:41;99102.00;;;11.30
12854;BMP180;6495;51.808;7.478;2023-03-31T09:25:34;99106.00;;;11.30
12854;BMP180;6495;51.808;7.478;2023-03-31T09:28:30;99096.00;;;11.30
12854;BMP180;6495;51.808;7.478;2023-03-31T09:31:22;99085.00;;;11.20
12854;BMP180;6495;51.808;7.478;2023-03-31T09:34:16;99078.00;;;11.20
12854;BMP180;6495;51.808;7.478;2023-03-31T09:37:08;99083.00;;;11.20
12854;BMP180;6495;51.808;7.478;2023-03-31T09:39:59;99074.00;;;11.20
12854;BMP180;6495;51.808;7.478;2023-03-31T09:42:57;99074.00;;;11.20
12854;BMP180;6495;51.808;7.478;2023-03-31T09:45:46;99071.00;;;11.20
12854;BMP180;6495;51.808;7.478;2023-03-31T09:49:03;99067.00;;;11.20
12854;BMP180;6495;51.808;7.478;2023-03-31T09:52:03;99071.00;;;11.20
12854;BMP180;6495;51.808;7.478;2023-03-31T09:54:54;99053.00;;;11.10
12854;BMP180;6495;51.808;7.478;2023-03-31T09:57:44;99050.00;;;11.10
12854;BMP180;6495;51.808;7.478;2023-03-31T10:00:33;99039.00;;;11.10
12854;BMP180;6495;51.808;7.478;2023-03-31T10:03:24;99037.00;;;11.10
12854;BMP180;6495;51.808;7.478;2023-03-31T10:06:15;99035.00;;;11.10
12854;BMP180;6495;51.808;7.478;2023-03-31T10:09:09;99035.00;;;11.10
12854;BMP180;6495;51.808;7.478;2023-03-31T10:12:03;99028.00;;;11.10
12854;BMP180;6495;51.808;7.478;2023-03-31T10:15:02;99027.00;;;11.10
12854;BMP180;6495;51.808;7.478;2023-03-31T10:17:59;99022.00;;;11.10
12854;BMP180;6495;51.808;7.478;2023-03-31T10:20:50;99012.00;;;11.10
12854;BMP180;6495;51.808;7.478;2023-03-31T10:23:46;99000.00;;;11.20
12854;BMP180;6495;51.808;7.478;2023-03-31T10:26:37;99005.00;;;11.20
12854;BMP180;6495;51.808;7.478;2023-03-31T10:29:31;98995.00;;;11.20
12854;BMP180;6495;51.808;7.478;2023-03-31T10:32:24;98997.00;;;11.20
12854;BMP180;6495;51.808;7.478;2023-03-31T10:35:24;98991.00;;;11.20
12854;BMP180;6495;51.808;7.478;2023-03-31T10:38:18;98996.00;;;11.30
12854;BMP180;6495;51.808;7.478;2023-03-31T10:41:09;98995.00;;;11.40
12854;BMP180;6495;51.808;7.478;2023-03-31T10:44:02;98992.00;;;11.40
12854;BMP180;6495;51.808;7.478;2023-03-31T10:46:52;98995.00;;;11.50
12854;BMP180;6495;51.808;7.478;2023-03-31T10:49:43;98990.00;;;11.50
12854;BMP180;6495;51.808;7.478;2023-03-31T10:52:44;98994.00;;;11.60
12854;BMP180;6495;51.808;7.478;2023-03-31T10:55:40;98993.00;;;11.70
12854;BMP180;6495;51.808;7.478;2023-03-31T10:58:49;98995.00;;;11.80
12854;BMP180;6495;51.808;7.478;2023-03-31T11:02:15;98994.00;;;11.80
12854;BMP180;6495;51.808;7.478;2023-03-31T11:05:14;98995.00;;;11.90
12854;BMP180;6495;51.808;7.478;2023-03-31T11:08:40;98985.00;;;11.90
12854;BMP180;6495;51.808;7.478;2023-03-31T11:11:55;99003.00;;;11.90
12854;BMP180;6495;51.808;7.478;2023-03-31T11:14:59;99000.00;;;12.00
12854;BMP180;6495;51.808;7.478;2023-03-31T11:18:08;98996.00;;;12.10
12854;BMP180;6495;51.808;7.478;2023-03-31T11:21:11;98977.00;;;12.10
12854;BMP180;6495;51.808;7.478;2023-03-31T11:24:25;98978.00;;;12.20
12854;BMP180;6495;51.808;7.478;2023-03-31T11:27:37;98982.00;;;12.30
12854;BMP180;6495;51.808;7.478;2023-03-31T11:30:32;98979.00;;;12.40
12854;BMP180;6495;51.808;7.478;2023-03-31T11:33:42;98972.00;;;12.60
12854;BMP180;6495;51.808;7.478;2023-03-31T11:36:52;98969.00;;;12.70
12854;BMP180;6495;51.808;7.478;2023-03-31T11:39:58;98966.00;;;12.90
12854;BMP180;6495;51.808;7.478;2023-03-31T11:42:58;98959.00;;;13.10
12854;BMP180;6495;51.808;7.478;2023-03-31T11:45:53;98956.00;;;13.20
12854;BMP180;6495;51.808;7.478;2023-03-31T11:48:51;98966.00;;;13.30
12854;BMP180;6495;51.808;7.478;2023-03-31T11:51:50;98963.00;;;13.30
12854;BMP180;6495;51.808;7.478;2023-03-31T11:54:48;98980.00;;;13.40
12854;BMP180;6495;51.808;7.478;2023-03-31T11:57:46;98977.00;;;13.40
12854;BMP180;6495;51.808;7.478;2023-03-31T12:00:40;98981.00;;;13.40
12854;BMP180;6495;51.808;7.478;2023-03-31T12:03:39;98983.00;;;13.30
12854;BMP180;6495;51.808;7.478;2023-03-31T12:06:35;98988.00;;;13.30
12854;BMP180;6495;51.808;7.478;2023-03-31T12:09:34;98987.00;;;13.30
12854;BMP180;6495;51.808;7.478;2023-03-31T12:12:31;98976.00;;;13.20
12854;BMP180;6495;51.808;7.478;2023-03-31T12:15:24;98979.00;;;13.20
12854;BMP180;6495;51.808;7.478;2023-03-31T12:18:20;98983.00;;;13.30
12854;BMP180;6495;51.808;7.478;2023-03-31T12:21:10;98980.00;;;13.40
12854;BMP180;6495;51.808;7.478;2023-03-31T12:24:00;98982.00;;;13.50
12854;BMP180;6495;51.808;7.478;2023-03-31T12:27:01;98974.00;;;13.60
12854;BMP180;6495;51.808;7.478;2023-03-31T12:29:56;98968.00;;;13.70
12854;BMP180;6495;51.808;7.478;2023-03-31T12:32:52;98972.00;;;13.80
12854;BMP180;6495;51.808;7.478;2023-03-31T12:36:00;98972.00;;;13.80
12854;BMP180;6495;51.808;7.478;2023-03-31T12:39:10;98968.00;;;13.90
12854;BMP180;6495;51.808;7.478;2023-03-31T12:42:54;98972.00;;;13.90
12854;BMP180;6495;51.808;7.478;2023-03-31T12:45:56;98965.00;;;13.90
12854;BMP180;6495;51.808;7.478;2023-03-31T12:49:11;98958.00;;;13.90
12854;BMP180;6495;51.808;7.478;2023-03-31T12:52:04;98951.00;;;13.90
12854;BMP180;6495;51.808;7.478;2023-03-31T12:55:33;98956.00;;;14.10
12854;BMP180;6495;51.808;7.478;2023-03-31T12:58:42;98959.00;;;14.10
12854;BMP180;6495;51.808;7.478;2023-03-31T13:01:30;98949.00;;;14.10
12854;BMP180;6495;51.808;7.478;2023-03-31T13:04:20;98944.00;;;14.20
12854;BMP180;6495;51.808;7.478;2023-03-31T13:07:33;98942.00;;;14.20
12854;BMP180;6495;51.808;7.478;2023-03-31T13:10:28;98945.00;;;14.30
12854;BMP180;6495;51.808;7.478;2023-03-31T13:13:17;98950.00;;;14.30
12854;BMP180;6495;51.808;7.478;2023-03-31T13:16:05;98954.00;;;14.40
12854;BMP180;6495;51.808;7.478;2023-03-31T13:18:55;98954.00;;;14.40
12854;BMP180;6495;51.808;7.478;2023-03-31T13:21:54;98944.00;;;14.50
12854;BMP180;6495;51.808;7.478;2023-03-31T13:24:44;98946.00;;;14.50
12854;BMP180;6495;51.808;7.478;2023-03-31T13:27:33;98947.00;;;14.50
12854;BMP180;6495;51.808;7.478;2023-03-31T13:30:46;98934.00;;;14.50
12854;BMP180;6495;51.808;7.478;2023-03-31T13:33:56;98939.00;;;14.50
12854;BMP180;6495;51.808;7.478;2023-03-31T13:37:12;98942.00;;;14.50
12854;BMP180;6495;51.808;7.478;2023-03-31T13:40:33;98933.00;;;14.50
12854;BMP180;6495;51.808;7.478;2023-03-31T13:44:03;98942.00;;;14.50
12854;BMP180;6495;51.808;7.478;2023-03-31T13:47:33;98939.00;;;14.60
12854;BMP180;6495;51.808;7.478;2023-03-31T13:50:44;98946.00;;;14.60
12854;BMP180;6495;51.808;7.478;2023-03-31T13:57:39;98926.00;;;14.70
12854;BMP180;6495;51.808;7.478;2023-03-31T14:00:50;98930.00;;;14.70
12854;BMP180;6495;51.808;7.478;2023-03-31T14:04:00;98937.00;;;14.70
12854;BMP180;6495;51.808;7.478;2023-03-31T14:06:58;98921.00;;;14.70
12854;BMP180;6495;51.808;7.478;2023-03-31T14:09:51;98919.00;;;14.80
12854;BMP180;6495;51.808;7.478;2023-03-31T14:12:41;98916.00;;;14.80
12854;BMP180;6495;51.808;7.478;2023-03-31T14:15:30;98909.00;;;14.80
12854;BMP180;6495;51.808;7.478;2023-03-31T14:18:24;98918.00;;;14.80
12854;BMP180;6495;51.808;7.478;2023-03-31T14:21:20;98915.00;;;14.90
12854;BMP180;6495;51.808;7.478;2023-03-31T14:24:21;98916.00;;;14.90
12854;BMP180;6495;51.808;7.478;2023-03-31T14:27:29;98912.00;;;14.90
12854;BMP180;6495;51.808;7.478;2023-03-31T14:30:36;98912.00;;;14.90
12854;BMP180;6495;51.808;7.478;2023-03-31T14:33:39;98903.00;;;14.90
12854;BMP180;6495;51.808;7.478;2023-03-31T14:36:35;98902.00;;;14.90
12854;BMP180;6495;51.808;7.478;2023-03-31T14:39:31;98897.00;;;14.90
12854;BMP180;6495;51.808;7.478;2023-03-31T14:42:25;98881.00;;;14.90
12854;BMP180;6495;51.808;7.478;2023-03-31T14:45:19;98884.00;;;14.90
12854;BMP180;6495;51.808;7.478;2023-03-31T14:48:13;98884.00;;;14.90
12854;BMP180;6495;51.808;7.478;2023-03-31T14:51:09;98884.00;;;14.70
12854;BMP180;6495;51.808;7.478;2023-03-31T14:53:59;98878.00;;;14.60
12854;BMP180;6495;51.808;7.478;2023-03-31T14:56:53;98871.00;;;14.50
12854;BMP180;6495;51.808;7.478;2023-03-31T14:59:43;98866.00;;;14.40
12854;BMP180;6495;51.808;7.478;2023-03-31T15:02:36;98864.00;;;14.30
12854;BMP180;6495;51.808;7.478;2023-03-31T15:05:29;98857.00;;;14.20
12854;BMP180;6495;51.808;7.478;2023-03-31T15:08:22;98856.00;;;14.20
12854;BMP180;6495;51.808;7.478;2023-03-31T15:11:17;98849.00;;;14.10
12854;BMP180;6495;51.808;7.478;2023-03-31T15:14:09;98855.00;;;14.10
12854;BMP180;6495;51.808;7.478;2023-03-31T15:16:57;98853.00;;;14.10
12854;BMP180;6495;51.808;7.478;2023-03-31T15:19:54;98854.00;;;14.10
12854;BMP180;6495;51.808;7.478;2023-03-31T15:22:43;98865.00;;;14.20
12854;BMP180;6495;51.808;7.478;2023-03-31T15:25:39;98875.00;;;14.20
12854;BMP180;6495;51.808;7.478;2023-03-31T15:28:36;98884.00;;;14.30
12854;BMP180;6495;51.808;7.478;2023-03-31T15:31:27;98904.00;;;14.30
12854;BMP180;6495;51.808;7.478;2023-03-31T15:34:24;98894.00;;;14.20
12854;BMP180;6495;51.808;7.478;2023-03-31T15:37:14;98893.00;;;14.10
12854;BMP180;6495;51.808;7.478;2023-03-31T15:40:08;98905.00;;;14.10
12854;BMP180;6495;51.808;7.478;2023-03-31T15:43:08;98881.00;;;14.00
12854;BMP180;6495;51.808;7.478;2023-03-31T15:46:10;98875.00;;;14.00
12854;BMP180;6495;51.808;7.478;2023-03-31T15:48:59;98881.00;;;14.00
12854;BMP180;6495;51.808;7.478;2023-03-31T15:51:50;98873.00;;;14.10
12854;BMP180;6495;51.808;7.478;2023-03-31T15:54:40;98884.00;;;14.00
12854;BMP180;6495;51.808;7.478;2023-03-31T15:57:34;98873.00;;;14.00
12854;BMP180;6495;51.808;7.478;2023-03-31T16:00:45;98865.00;;;14.00
12854;BMP180;6495;51.808;7.478;2023-03-31T16:03:35;98862.00;;;13.90
12854;BMP180;6495;51.808;7.478;2023-03-31T16:06:44;98856.00;;;13.90
12854;BMP180;6495;51.808;7.478;2023-03-31T16:09:42;98850.00;;;13.90
12854;BMP180;6495;51.808;7.478;2023-03-31T16:12:38;98863.00;;;13.90
12854;BMP180;6495;51.808;7.478;2023-03-31T16:15:32;98857.00;;;13.80
12854;BMP180;6495;51.808;7.478;2023-03-31T16:18:29;98841.00;;;13.70
12854;BMP180;6495;51.808;7.478;2023-03-31T16:21:24;98839.00;;;13.70
12854;BMP180;6495;51.808;7.478;2023-03-31T16:24:16;98843.00;;;13.50
12854;BMP180;6495;51.808;7.478;2023-03-31T16:27:06;98842.00;;;13.50
12854;BMP180;6495;51.808;7.478;2023-03-31T16:30:08;98833.00;;;13.50
12854;BMP180;6495;51.808;7.478;2023-03-31T16:33:00;98835.00;;;13.50
12854;BMP180;6495;51.808;7.478;2023-03-31T16:35:52;98826.00;;;13.40
12854;BMP180;6495;51.808;7.478;2023-03-31T16:38:42;98828.00;;;13.40
12854;BMP180;6495;51.808;7.478;2023-03-31T16:41:32;98831.00;;;13.30
12854;BMP180;6495;51.808;7.478;2023-03-31T16:44:21;98836.00;;;13.30
12854;BMP180;6495;51.808;7.478;2023-03-31T16:47:10;98833.00;;;13.20
12854;BMP180;6495;51.808;7.478;2023-03-31T16:50:10;98835.00;;;13.20
12854;BMP180;6495;51.808;7.478;2023-03-31T16:53:01;98836.00;;;13.20
12854;BMP180;6495;51.808;7.478;2023-03-31T16:55:50;98835.00;;;13.20
12854;BMP180;6495;51.808;7.478;2023-03-31T16:58:39;98836.00;;;13.20
12854;BMP180;6495;51.808;7.478;2023-03-31T17:01:28;98827.00;;;13.20
12854;BMP180;6495;51.808;7.478;2023-03-31T17:04:17;98828.00;;;13.10
12854;BMP180;6495;51.808;7.478;2023-03-31T17:07:05;98835.00;;;13.10
12854;BMP180;6495;51.808;7.478;2023-03-31T17:09:55;98825.00;;;13.10
12854;BMP180;6495;51.808;7.478;2023-03-31T17:12:44;98832.00;;;13.10